Time;durP1;ratioP1;P1;durP2;ratioP2;P2;SDS_P1;SDS_P2;PMS_P1;PMS_P2;Temp;Humidity;BMP_temperature;BMP_pressure;BME280_temperature;BME280_humidity;BME280_pressure;Samples;Min_cycle;Max_cycle;Signal;HPM_P1;HPM_P2
2022/08/30 05:30:56;;;;;;;30.00;16.35;;;;;;;20.89;78.08;100148.07;1748461;81;21068;-41
2022/08/30 05:33:23;;;;;;;29.18;15.85;;;;;;;21.10;78.35;100144.89;1749314;80;21065;-39
2022/08/30 05:35:50;;;;;;;31.55;16.45;;;;;;;21.20;78.15;100139.55;1756892;80;20980;-48
2022/08/30 05:38:16;;;;;;;22.65;16.27;;;;;;;21.33;77.81;100142.53;1745174;81;21651;-49
2022/08/30 05:40:43;;;;;;;22.25;16.87;;;;;;;21.43;77.65;100142.50;1744350;81;21072;-48
2022/08/30 05:43:10;;;;;;;26.10;17.27;;;;;;;21.49;77.44;100141.74;1739131;80;21016;-43
2022/08/30 05:45:37;;;;;;;21.57;16.57;;;;;;;21.58;77.39;100140.92;1736054;80;20996;-41
2022/08/30 05:48:04;;;;;;;26.87;17.60;;;;;;;21.65;76.93;100141.88;1733563;80;21078;-43
2022/08/30 05:50:30;;;;;;;29.15;16.32;;;;;;;21.77;76.70;100145.28;1734398;80;21129;-42
2022/08/30 05:52:57;;;;;;;27.80;17.35;;;;;;;21.90;76.45;100136.22;1730718;81;21122;-41
2022/08/30 05:55:24;;;;;;;31.57;17.55;;;;;;;22.03;76.17;100136.47;1740816;80;21037;-42
2022/08/30 05:57:51;;;;;;;37.28;18.25;;;;;;;22.16;75.69;100134.11;1745674;80;21044;-48
2022/08/30 06:00:18;;;;;;;40.10;19.40;;;;;;;22.27;75.52;100141.95;1742297;80;21028;-42
2022/08/30 06:02:45;;;;;;;28.75;17.30;;;;;;;22.41;75.31;100137.24;1709401;83;21612;-41
2022/08/30 06:05:12;;;;;;;32.75;16.67;;;;;;;22.55;74.72;100147.18;1710353;82;21021;-41
2022/08/30 06:07:41;;;;;;;32.95;18.02;;;;;;;22.68;74.62;100153.63;1738541;80;22073;-48
2022/08/30 06:10:11;;;;;;;37.23;15.45;;;;;;;22.78;74.33;100148.64;1731127;80;21052;-48
2022/08/30 06:12:38;;;;;;;27.27;16.40;;;;;;;22.89;74.14;100153.45;1734409;80;21526;-48
2022/08/30 06:15:06;;;;;;;24.35;13.58;;;;;;;23.03;73.87;100156.27;1742859;80;21119;-47
2022/08/30 06:17:33;;;;;;;21.48;11.90;;;;;;;23.20;73.53;100152.21;1747343;80;21115;-41
2022/08/30 06:20:00;;;;;;;23.60;12.45;;;;;;;23.41;72.94;100157.30;1732360;80;21043;-42
2022/08/30 06:22:26;;;;;;;32.05;16.52;;;;;;;23.63;72.51;100150.72;1744228;80;21170;-48
2022/08/30 06:24:53;;;;;;;29.40;17.73;;;;;;;23.88;71.90;100155.99;1758219;80;21063;-41
2022/08/30 06:27:19;;;;;;;24.12;12.88;;;;;;;24.08;71.36;100142.36;1748959;80;21044;-48
2022/08/30 06:29:53;;;;;;;18.98;11.93;;;;;;;24.31;70.71;100137.48;1736182;80;21024;-42
2022/08/30 06:32:19;;;;;;;16.62;12.93;;;;;;;24.51;70.35;100134.97;1756324;80;21615;-44
2022/08/30 06:34:47;;;;;;;17.52;13.03;;;;;;;24.91;69.63;100136.94;1744778;80;21131;-42
2022/08/30 06:37:13;;;;;;;18.90;12.98;;;;;;;24.91;69.63;100136.94;1746337;81;21048;-41
2022/08/30 06:39:40;;;;;;;19.95;12.37;;;;;;;25.12;68.27;100133.92;1751570;80;21029;-48
2022/08/30 06:42:07;;;;;;;26.10;13.15;;;;;;;25.30;67.46;100146.63;1729813;81;21025;-48
2022/08/30 06:44:36;;;;;;;18.87;13.20;;;;;;;25.47;66.94;100146.41;1745549;80;21016;-48
2022/08/30 06:47:02;;;;;;;42.80;22.95;;;;;;;25.63;66.63;100148.48;1740073;80;21042;-48
2022/08/30 06:49:29;;;;;;;35.60;22.02;;;;;;;25.79;66.57;100156.39;1734905;80;21041;-48
2022/08/30 06:51:55;;;;;;;28.60;15.18;;;;;;;25.92;65.37;100161.36;1736916;80;21045;-48
2022/08/30 06:54:22;;;;;;;23.38;14.25;;;;;;;26.02;64.81;100153.55;1741519;80;21012;-48
2022/08/30 06:56:49;;;;;;;22.95;13.13;;;;;;;26.13;64.58;100155.52;1742650;80;21027;-41
2022/08/30 06:59:16;;;;;;;19.02;11.53;;;;;;;26.25;63.82;100156.03;1750254;80;21536;-42
2022/08/30 07:01:42;;;;;;;23.60;11.97;;;;;;;26.36;63.75;100157.52;1748328;80;20989;-42
2022/08/30 07:04:09;;;;;;;19.17;11.28;;;;;;;26.44;63.20;100156.56;1738878;80;21047;-41
2022/08/30 07:06:36;;;;;;;21.60;10.58;;;;;;;26.57;63.29;100153.03;1755418;80;21013;-49
2022/08/30 07:09:03;;;;;;;19.00;10.03;;;;;;;26.74;62.55;100155.41;1744959;80;21007;-41
2022/08/30 07:11:35;;;;;;;13.13;8.20;;;;;;;26.85;61.35;100154.67;1749816;80;21001;-42
2022/08/30 07:14:02;;;;;;;19.20;10.35;;;;;;;26.95;61.02;100151.21;1754445;80;21096;-48
2022/08/30 07:16:29;;;;;;;18.65;9.03;;;;;;;27.10;60.34;100148.46;1751137;80;21077;-42
2022/08/30 07:18:57;;;;;;;19.90;9.55;;;;;;;27.22;59.03;100155.16;1753077;80;20977;-42
2022/08/30 07:21:35;;;;;;;9.05;8.10;;;;;;;27.29;57.93;100152.39;1720888;81;21024;-48
2022/08/30 07:24:03;;;;;;;11.90;8.20;;;;;;;27.37;57.68;100153.21;1706013;83;21804;-42
2022/08/30 07:26:36;;;;;;;17.10;8.50;;;;;;;27.48;56.83;100149.23;1716749;82;21395;-42
2022/08/30 07:29:03;;;;;;;11.78;7.78;;;;;;;27.55;56.19;100142.95;1740940;80;21025;-48
2022/08/30 07:31:31;;;;;;;10.82;7.70;;;;;;;27.65;55.63;100141.78;1748944;80;20978;-49
2022/08/30 07:33:58;;;;;;;12.28;7.80;;;;;;;27.73;55.01;100140.29;1749643;80;21022;-41
2022/08/30 07:36:25;;;;;;;11.90;7.15;;;;;;;27.79;54.74;100143.86;1744263;80;20965;-42
2022/08/30 07:38:51;;;;;;;15.08;7.35;;;;;;;27.84;54.89;100146.22;1755977;80;20984;-48
2022/08/30 07:41:24;;;;;;;16.62;8.33;;;;;;;27.89;54.66;100141.37;1752994;80;21031;-42
2022/08/30 07:43:51;;;;;;;10.63;7.70;;;;;;;27.95;54.47;100138.22;1747515;81;21040;-48
2022/08/30 07:46:18;;;;;;;16.82;7.62;;;;;;;28.05;54.65;100137.02;1755101;80;21072;-48
2022/08/30 07:48:45;;;;;;;12.53;7.90;;;;;;;28.16;53.97;100131.69;1741527;80;21060;-48
2022/08/30 07:51:15;;;;;;;10.30;6.90;;;;;;;28.24;53.43;100136.02;1717311;81;21104;-41
2022/08/30 07:53:41;;;;;;;16.35;8.23;;;;;;;28.30;53.42;100127.97;1741165;80;21586;-42
2022/08/30 07:56:08;;;;;;;14.07;7.55;;;;;;;28.40;53.76;100131.69;1743085;80;21496;-42
2022/08/30 07:58:36;;;;;;;11.00;7.25;;;;;;;28.49;52.54;100127.44;1752249;80;21030;-41
2022/08/30 08:01:06;;;;;;;11.15;7.80;;;;;;;28.54;52.27;100135.53;1752700;80;21571;-48
2022/08/30 08:03:34;;;;;;;9.20;7.17;;;;;;;28.61;51.96;100133.22;1751994;80;21127;-42
2022/08/30 08:06:02;;;;;;;11.88;7.42;;;;;;;28.67;51.42;100129.19;1716203;82;21068;-49
2022/08/30 08:08:29;;;;;;;16.02;7.30;;;;;;;28.70;51.27;100132.52;1718209;83;21704;-42
2022/08/30 08:10:56;;;;;;;9.53;6.85;;;;;;;28.73;50.61;100137.64;1750659;80;21398;-42
2022/08/30 08:13:24;;;;;;;11.50;6.95;;;;;;;28.77;50.63;100136.43;1747684;80;21538;-49
2022/08/30 08:15:50;;;;;;;13.20;7.72;;;;;;;28.83;50.25;100133.75;1748440;80;21143;-48
2022/08/30 08:18:17;;;;;;;10.15;6.40;;;;;;;28.90;50.15;100139.02;1755068;80;21053;-48
2022/08/30 08:20:44;;;;;;;13.55;6.80;;;;;;;28.95;49.65;100134.65;1744096;80;21068;-42
2022/08/30 08:23:11;;;;;;;14.18;7.00;;;;;;;29.01;49.68;100129.63;1713386;81;21079;-48
2022/08/30 08:25:40;;;;;;;8.88;7.03;;;;;;;29.08;49.85;100134.89;1709967;82;21568;-42
2022/08/30 08:28:06;;;;;;;11.65;6.75;;;;;;;29.18;49.46;100128.29;1706605;82;21550;-49
2022/08/30 08:30:35;;;;;;;10.28;6.33;;;;;;;29.27;48.34;100132.06;1702588;82;21531;-49
2022/08/30 08:33:03;;;;;;;13.62;6.83;;;;;;;29.37;48.13;100126.31;1708343;82;21598;-48
2022/08/30 08:35:30;;;;;;;12.00;7.37;;;;;;;29.48;48.35;100128.13;1753992;80;21026;-49
2022/08/30 08:37:57;;;;;;;13.32;6.70;;;;;;;29.60;46.97;100126.67;1745965;81;21078;-48
2022/08/30 08:40:24;;;;;;;8.35;6.30;;;;;;;29.67;46.50;100126.52;1749977;80;21055;-42
2022/08/30 08:43:11;;;;;;;11.85;6.55;;;;;;;29.77;46.47;100125.78;1739880;81;21623;-43
2022/08/30 08:45:54;;;;;;;12.20;6.20;;;;;;;29.86;46.67;100119.14;1732685;80;21019;-42
2022/08/30 08:48:48;;;;;;;10.95;7.10;;;;;;;29.98;46.15;100119.95;1737156;80;21050;-49
2022/08/30 08:54:29;;;;;;;12.98;7.42;;;;;;;30.06;46.33;100121.50;1747295;80;21446;-48
2022/08/30 08:56:56;;;;;;;13.97;7.00;;;;;;;30.09;45.73;100121.23;1744226;80;21091;-48
2022/08/30 08:59:22;;;;;;;11.78;6.58;;;;;;;30.15;45.84;100113.14;1746540;80;22147;-48
2022/08/30 09:01:49;;;;;;;10.00;6.40;;;;;;;30.21;46.02;100108.61;1749247;80;21151;-47
2022/08/30 09:04:20;;;;;;;13.30;7.22;;;;;;;30.31;46.32;100103.27;1754766;80;21123;-48
2022/08/30 09:07:15;;;;;;;10.82;6.80;;;;;;;30.41;44.90;100107.75;1758938;80;21084;-41
2022/08/30 09:09:44;;;;;;;9.58;6.87;;;;;;;30.41;43.85;100106.89;1748551;81;21066;-48
2022/08/30 09:12:10;;;;;;;14.63;7.17;;;;;;;30.43;44.27;100099.52;1748434;80;21086;-48
2022/08/30 09:14:42;;;;;;;14.85;6.60;;;;;;;30.50;44.19;100098.02;1746873;81;21535;-49
2022/08/30 09:17:10;;;;;;;11.03;7.00;;;;;;;30.57;44.47;100099.69;1725495;81;21444;-44
2022/08/30 09:19:58;;;;;;;9.90;7.22;;;;;;;30.60;44.77;100098.91;1747993;82;21389;-42
2022/08/30 09:22:31;;;;;;;15.95;6.90;;;;;;;30.63;43.25;100101.86;1752647;81;21106;-48
2022/08/30 09:25:11;;;;;;;12.30;6.78;;;;;;;30.59;42.96;100105.30;1747092;80;21044;-49
2022/08/30 09:27:41;;;;;;;15.38;6.55;;;;;;;30.58;42.87;100100.91;1757703;79;21572;-42
2022/08/30 09:30:22;;;;;;;15.90;7.08;;;;;;;30.59;42.72;100101.75;1758062;80;21024;-42
2022/08/30 09:32:58;;;;;;;11.50;6.70;;;;;;;30.65;42.05;100099.87;1743250;81;21056;-49
2022/08/30 09:35:40;;;;;;;10.08;6.03;;;;;;;30.75;42.17;100099.97;1748567;81;21028;-49
2022/08/30 09:38:16;;;;;;;10.68;5.95;;;;;;;30.86;41.96;100106.14;1747381;81;21055;-49
2022/08/30 09:40:50;;;;;;;16.87;6.47;;;;;;;30.95;41.37;100113.41;1745270;81;20991;-48
2022/08/30 09:43:30;;;;;;;12.55;6.67;;;;;;;30.90;41.82;100108.91;1756016;81;21051;-49
2022/08/30 09:46:08;;;;;;;12.05;6.30;;;;;;;30.86;41.37;100106.63;1753325;80;21047;-42
2022/08/30 09:48:43;;;;;;;10.63;6.20;;;;;;;30.86;41.71;100103.44;1744963;81;21555;-42
2022/08/30 09:51:34;;;;;;;9.68;6.17;;;;;;;30.95;41.70;100095.00;1758831;80;21035;-48
2022/08/30 09:54:25;;;;;;;12.00;6.28;;;;;;;31.07;41.46;100094.41;1751773;81;21009;-48
2022/08/30 09:57:04;;;;;;;11.95;6.25;;;;;;;31.09;40.60;100096.01;1751078;81;21119;-42
2022/08/30 09:59:58;;;;;;;10.05;6.40;;;;;;;31.11;40.59;100091.31;1740229;81;21038;-42
2022/08/30 10:02:52;;;;;;;12.73;6.37;;;;;;;31.17;40.24;100089.41;1745161;81;21047;-49
2022/08/30 10:05:37;;;;;;;8.88;5.90;;;;;;;31.22;40.29;100091.20;1651249;85;21045;-49
2022/08/30 10:08:48;;;;;;;10.30;5.58;;;;;;;31.24;40.07;100092.41;1659410;86;21049;-45
2022/08/30 10:11:53;;;;;;;10.23;5.87;;;;;;;31.23;39.56;100086.16;1630134;86;21607;-40
2022/08/30 10:14:53;;;;;;;8.45;5.67;;;;;;;31.27;39.61;100083.23;1642677;86;21036;-40
2022/08/30 10:17:37;;;;;;;12.88;6.05;;;;;;;31.35;39.81;100082.03;1646110;86;22385;-48
2022/08/30 10:20:15;;;;;;;12.13;5.67;;;;;;;31.48;38.73;100083.97;1644190;85;21062;-48
2022/08/30 10:23:15;;;;;;;14.55;6.17;;;;;;;31.67;39.01;100066.95;1656563;85;21151;-42
2022/08/30 10:25:47;;;;;;;9.00;5.92;;;;;;;31.93;37.90;100072.17;1640638;85;21592;-47
2022/08/30 10:28:31;;;;;;;13.60;6.25;;;;;;;32.23;37.38;100067.59;1642342;85;21043;-42
2022/08/30 10:31:02;;;;;;;7.97;5.60;;;;;;;32.47;37.44;100065.80;1642896;86;21108;-48
2022/08/30 10:33:39;;;;;;;14.23;5.75;;;;;;;32.74;37.14;100068.58;1653514;85;21596;-49
2022/08/30 10:36:11;;;;;;;14.50;5.95;;;;;;;32.95;36.66;100072.45;1637368;85;21129;-48
2022/08/30 10:38:42;;;;;;;9.95;6.20;;;;;;;33.07;36.65;100075.83;1635719;85;21128;-44
2022/08/30 10:41:20;;;;;;;10.13;5.97;;;;;;;33.09;35.49;100075.16;1677764;84;21527;-41
2022/08/30 10:44:06;;;;;;;9.68;5.97;;;;;;;32.93;36.06;100074.95;1737341;81;21086;-48
2022/08/30 10:54:51;;;;;;;15.08;5.30;;;;;;;33.87;34.45;100053.36;1788469;79;22119;-47
2022/08/30 10:57:18;;;;;;;14.53;6.15;;;;;;;34.01;34.54;100057.39;1741398;81;21070;-47
2022/08/30 10:59:56;;;;;;;10.10;5.47;;;;;;;34.29;33.75;100054.57;1727628;83;20964;-48
2022/08/30 11:03:09;;;;;;;6.45;4.70;;;;;;;34.56;33.16;100057.65;1720393;81;20989;-48
2022/08/30 11:05:54;;;;;;;;;;;;;;;34.88;32.57;100048.33;1724840;83;21314;-48
2022/08/30 11:08:57;;;;;;;12.50;5.50;;;;;;;34.99;31.72;100043.16;1722218;81;20142;-48
2022/08/30 11:12:01;;;;;;;9.28;5.08;;;;;;;34.73;32.26;100051.81;1727439;83;20968;-48
2022/08/30 11:14:29;;;;;;;10.20;5.53;;;;;;;34.31;32.58;100042.53;1716990;83;21536;-48
2022/08/30 11:16:58;;;;;;;12.03;5.12;;;;;;;33.83;33.02;100046.53;1723388;81;21011;-42
2022/08/30 11:19:38;;;;;;;13.90;5.90;;;;;;;33.49;33.12;100040.09;1718010;83;21000;-48
2022/08/30 11:22:15;;;;;;;7.75;5.58;;;;;;;33.10;33.39;100039.78;1720880;81;21050;-42
2022/08/30 11:25:02;;;;;;;10.43;5.45;;;;;;;32.84;34.19;100033.34;1721872;83;21040;-48
2022/08/30 11:27:55;;;;;;;13.48;5.12;;;;;;;32.81;33.96;100033.63;1725210;81;21140;-41
2022/08/30 11:30:31;;;;;;;9.03;4.55;;;;;;;32.70;34.05;100030.59;1720698;83;21127;-48
2022/08/30 11:33:09;;;;;;;11.90;5.45;;;;;;;32.68;34.24;100035.82;1728732;81;21565;-48
2022/08/30 11:35:52;;;;;;;18.02;5.85;;;;;;;32.63;34.70;100029.48;1729175;83;21046;-48
2022/08/30 11:38:30;;;;;;;14.58;5.75;;;;;;;32.45;35.84;100023.14;1725700;81;21097;-42
2022/08/30 11:41:07;;;;;;;9.55;5.80;;;;;;;32.35;35.85;100023.16;1711781;83;21587;-41
2022/08/30 11:43:40;;;;;;;12.13;5.62;;;;;;;32.29;35.57;100023.20;1711574;81;21052;-48
2022/08/30 11:46:23;;;;;;;15.85;5.78;;;;;;;32.21;35.62;100014.13;1721759;81;21586;-48
2022/08/30 11:49:15;;;;;;;8.48;5.15;;;;;;;32.17;35.77;100015.41;1730430;81;21052;-48
2022/08/30 11:52:09;;;;;;;;;;;;;;;32.16;35.87;100007.80;1725408;81;21093;-41
2022/08/30 11:54:58;;;;;;;10.88;6.00;;;;;;;32.13;36.55;100013.52;1715507;81;20125;-42
2022/08/30 11:57:52;;;;;;;10.10;5.60;;;;;;;32.08;37.33;100013.59;1725139;81;21116;-40
2022/08/30 12:00:38;;;;;;;8.50;5.90;;;;;;;32.07;37.02;100014.59;1718957;81;21015;-40
2022/08/30 12:03:17;;;;;;;10.45;6.15;;;;;;;32.11;36.35;100007.38;1724476;81;21087;-46
2022/08/30 12:05:48;;;;;;;14.80;6.22;;;;;;;32.14;37.64;100016.57;1718344;81;21015;-47
2022/08/30 12:08:40;;;;;;;7.80;5.62;;;;;;;32.04;37.22;100008.95;1723838;82;21119;-41
2022/08/30 12:11:17;;;;;;;7.72;5.62;;;;;;;31.93;37.81;100009.11;1719435;81;21001;-48
2022/08/30 12:13:50;;;;;;;9.40;5.87;;;;;;;31.84;38.28;100007.29;1718990;82;21614;-48
2022/08/30 12:16:24;;;;;;;8.85;5.70;;;;;;;31.77;38.05;100006.95;1724181;81;20977;-46
